Time;durP1;ratioP1;P1;durP2;ratioP2;P2;SDS_P1;SDS_P2;PMS_P1;PMS_P2;Temp;Humidity;BMP_temperature;BMP_pressure;BME280_temperature;BME280_humidity;BME280_pressure;Samples;Min_cycle;Max_cycle;Signal;HPM_P1;HPM_P2
2022/01/09 00:01:26;;;;;;;1.50;1.40;;;8.10;78.50;;;;;;5049616;28;20056;-90
2022/01/09 00:03:52;;;;;;;1.50;1.40;;;8.10;78.50;;;;;;5069035;28;20082;-90
2022/01/09 00:06:27;;;;;;;1.63;1.52;;;8.10;78.50;;;;;;5039701;28;20068;-89
2022/01/09 00:08:58;;;;;;;1.60;1.50;;;8.10;78.50;;;;;;5061515;28;20036;-90
2022/01/09 00:11:36;;;;;;;1.52;1.42;;;8.10;78.50;;;;;;5056111;28;20037;-90
2022/01/09 00:14:04;;;;;;;1.50;1.40;;;8.10;78.50;;;;;;5027771;28;20025;-89
2022/01/09 00:16:33;;;;;;;1.50;1.40;;;8.10;78.50;;;;;;5058317;28;20040;-89
2022/01/09 00:19:01;;;;;;;1.52;1.42;;;8.10;78.50;;;;;;5044457;28;20780;-89
2022/01/09 00:21:36;;;;;;;1.63;1.50;;;8.10;78.50;;;;;;5042159;28;20029;-91
2022/01/09 00:24:02;;;;;;;1.50;1.40;;;8.10;78.50;;;;;;5043811;28;20127;-90
2022/01/09 00:26:31;;;;;;;1.63;1.52;;;8.10;78.50;;;;;;5041242;28;20033;-91
2022/01/09 00:28:56;;;;;;;1.50;1.40;;;8.10;78.50;;;;;;5045122;28;20035;-90
2022/01/09 00:31:22;;;;;;;1.70;1.48;;;8.10;78.50;;;;;;5056600;28;20100;-90
2022/01/09 00:33:51;;;;;;;1.50;1.40;;;8.10;78.40;;;;;;5043469;28;20115;-91
2022/01/09 00:36:17;;;;;;;1.60;1.50;;;8.10;78.40;;;;;;5047283;28;20033;-91
2022/01/09 00:38:45;;;;;;;1.50;1.40;;;8.10;78.40;;;;;;5045392;28;20075;-90
2022/01/09 00:41:14;;;;;;;1.73;1.40;;;8.10;78.40;;;;;;5050119;28;20098;-90
2022/01/09 00:43:44;;;;;;;1.67;1.58;;;8.10;78.40;;;;;;5036014;28;20155;-92
2022/01/09 00:46:12;;;;;;;1.75;1.65;;;8.20;78.50;;;;;;5022303;28;20033;-90
2022/01/09 00:48:38;;;;;;;1.50;1.40;;;8.10;78.40;;;;;;5037659;28;20556;-90
2022/01/09 00:51:05;;;;;;;1.60;1.50;;;8.10;78.40;;;;;;5040670;28;20060;-89
2022/01/09 00:53:33;;;;;;;1.58;1.42;;;8.10;78.40;;;;;;5043266;28;20056;-90
2022/01/09 00:55:59;;;;;;;1.70;1.60;;;8.10;78.40;;;;;;5044683;28;20111;-90
2022/01/09 00:58:35;;;;;;;;;;;;;;;;;;;;;
2022/01/09 01:01:04;;;;;;;1.58;1.48;;;8.10;78.40;;;;;;5047738;28;20029;-88
2022/01/09 01:03:32;;;;;;;1.55;1.45;;;8.10;78.40;;;;;;5044798;28;20024;-89
2022/01/09 01:05:58;;;;;;;1.65;1.55;;;8.10;78.40;;;;;;5027312;28;20100;-90
2022/01/09 01:08:28;;;;;;;1.67;1.58;;;8.10;78.40;;;;;;5057429;28;20017;-89
2022/01/09 01:10:57;;;;;;;1.90;1.77;;;8.10;78.40;;;;;;5032567;28;20029;-90
2022/01/09 01:13:25;;;;;;;1.60;1.50;;;8.10;78.40;;;;;;5031395;28;20059;-90
2022/01/09 01:15:56;;;;;;;1.73;1.60;;;8.10;78.40;;;;;;5032889;28;20029;-89
2022/01/09 01:18:25;;;;;;;1.70;1.60;;;8.10;78.40;;;;;;5041104;28;20021;-90
2022/01/09 01:20:51;;;;;;;1.63;1.50;;;8.10;78.40;;;;;;5038160;28;20120;-90
2022/01/09 01:23:31;;;;;;;1.50;1.40;;;8.10;79.00;;;;;;5043892;28;20473;-90
2022/01/09 01:26:01;;;;;;;1.75;1.50;;;8.10;78.40;;;;;;5021756;28;20390;-90
2022/01/09 01:28:30;;;;;;;1.60;1.50;;;8.10;78.40;;;;;;5035718;28;20037;-90
2022/01/09 01:30:56;;;;;;;1.55;1.45;;;8.10;78.40;;;;;;5021719;28;20035;-90
2022/01/09 01:33:24;;;;;;;1.55;1.45;;;8.10;78.40;;;;;;5052971;28;20013;-91
2022/01/09 01:35:53;;;;;;;1.58;1.48;;;8.10;78.40;;;;;;5050858;28;20033;-90
2022/01/09 01:38:19;;;;;;;1.60;1.50;;;8.10;78.40;;;;;;5060207;28;20019;-89
2022/01/09 01:40:45;;;;;;;1.80;1.65;;;8.10;78.40;;;;;;5050224;28;20635;-90
2022/01/09 01:43:13;;;;;;;1.60;1.50;;;8.10;78.40;;;;;;5045154;28;20462;-90
2022/01/09 01:45:39;;;;;;;1.60;1.50;;;8.20;78.60;;;;;;5038676;28;20100;-90
2022/01/09 01:48:06;;;;;;;1.92;1.45;;;8.10;78.50;;;;;;5035110;28;20140;-88
2022/01/09 01:50:38;;;;;;;2.13;1.50;;;8.10;78.40;;;;;;5040563;28;20037;-89
2022/01/09 01:53:11;;;;;;;1.50;1.40;;;8.10;78.50;;;;;;5059457;28;20083;-89
2022/01/09 01:55:39;;;;;;;1.45;1.33;;;8.20;78.50;;;;;;5056592;28;20036;-89
2022/01/09 01:58:12;;;;;;;2.40;1.63;;;8.10;78.50;;;;;;5043739;28;20014;-89
2022/01/09 02:00:42;;;;;;;1.83;1.35;;;8.20;78.50;;;;;;5029942;28;20378;-89
2022/01/09 02:03:11;;;;;;;1.58;1.40;;;8.20;78.60;;;;;;5030087;28;20059;-89
2022/01/09 02:05:40;;;;;;;1.85;1.40;;;8.20;78.50;;;;;;5043191;28;20065;-88
2022/01/09 02:08:07;;;;;;;2.17;1.50;;;8.20;78.60;;;;;;5027497;28;20097;-89
2022/01/09 02:10:33;;;;;;;2.47;1.48;;;8.20;78.60;;;;;;5060247;28;20512;-89
2022/01/09 02:12:59;;;;;;;2.53;1.50;;;8.20;78.60;;;;;;5026880;28;20087;-87
2022/01/09 02:15:39;;;;;;;1.92;1.35;;;8.20;78.60;;;;;;5027015;28;20036;-88
2022/01/09 02:18:08;;;;;;;2.15;1.33;;;8.20;78.70;;;;;;5026827;28;20028;-88
2022/01/09 02:20:34;;;;;;;1.48;1.30;;;8.20;78.60;;;;;;5034251;28;20075;-89
2022/01/09 02:23:07;;;;;;;3.15;1.88;;;8.20;78.60;;;;;;5038203;28;20529;-89
2022/01/09 02:25:34;;;;;;;3.30;1.55;;;8.20;78.60;;;;;;5053926;28;20078;-88
2022/01/09 02:28:01;;;;;;;3.15;1.50;;;8.20;78.60;;;;;;5014914;28;20474;-89
2022/01/09 02:30:29;;;;;;;4.00;1.40;;;8.20;78.60;;;;;;5043262;28;20025;-90
2022/01/09 02:32:54;;;;;;;4.88;1.80;;;8.20;78.60;;;;;;5021556;28;20021;-89
2022/01/09 02:35:27;;;;;;;4.57;1.75;;;8.20;78.60;;;;;;5036265;28;20032;-90
2022/01/09 02:37:58;;;;;;;4.00;1.73;;;8.30;78.70;;;;;;5044998;28;20021;-90
2022/01/09 02:40:26;;;;;;;5.13;1.75;;;8.20;78.60;;;;;;5036351;28;20041;-91
2022/01/09 02:42:53;;;;;;;4.53;1.70;;;8.20;78.60;;;;;;5031968;28;20371;-90
2022/01/09 02:45:26;;;;;;;5.25;2.00;;;8.20;78.60;;;;;;5047936;28;20443;-90
2022/01/09 02:47:54;;;;;;;4.72;1.90;;;8.30;78.70;;;;;;5066625;28;20025;-89
2022/01/09 02:53:00;;;;;;;5.05;1.90;;;8.30;78.70;;;;;;5043340;28;20046;-90
2022/01/09 02:55:29;;;;;;;5.13;2.10;;;8.30;78.60;;;;;;5053840;28;20124;-90
2022/01/09 02:58:00;;;;;;;4.10;1.77;;;8.30;78.70;;;;;;5046268;28;20025;-90
2022/01/09 03:00:32;;;;;;;3.83;1.90;;;8.30;78.70;;;;;;5054952;28;20036;-89
2022/01/09 03:02:59;;;;;;;4.03;1.90;;;8.30;78.70;;;;;;5042943;28;20039;-89
2022/01/09 03:05:26;;;;;;;6.80;2.00;;;8.30;78.70;;;;;;5045753;28;20565;-90
2022/01/09 03:07:53;;;;;;;6.45;2.70;;;8.30;78.70;;;;;;5054662;28;20040;-88
2022/01/09 03:10:20;;;;;;;5.32;2.08;;;8.40;78.70;;;;;;5038229;28;20021;-89
2022/01/09 03:12:52;;;;;;;4.60;2.33;;;8.30;78.70;;;;;;5055505;28;20028;-90
2022/01/09 03:15:23;;;;;;;6.60;2.10;;;8.30;78.70;;;;;;5050162;28;20066;-89
2022/01/09 03:17:49;;;;;;;4.20;1.88;;;8.40;78.70;;;;;;5038537;28;20143;-89
2022/01/09 03:20:17;;;;;;;5.30;1.90;;;8.40;78.70;;;;;;5054371;28;20074;-90
2022/01/09 03:22:46;;;;;;;6.40;2.42;;;8.40;78.70;;;;;;5034813;28;20367;-90
2022/01/09 03:25:12;;;;;;;4.53;1.77;;;8.40;78.70;;;;;;5036226;28;20025;-90
2022/01/09 03:27:40;;;;;;;6.63;2.10;;;8.40;78.70;;;;;;5030352;28;20040;-90
2022/01/09 03:30:12;;;;;;;5.10;1.77;;;8.40;78.70;;;;;;5043932;28;20074;-90
2022/01/09 03:32:39;;;;;;;5.80;2.00;;;8.40;78.70;;;;;;5041489;28;20111;-91
2022/01/09 03:35:12;;;;;;;6.55;2.05;;;8.40;78.70;;;;;;5035264;28;20040;-90
2022/01/09 03:37:39;;;;;;;6.78;2.33;;;8.40;79.30;;;;;;5055874;28;20029;-90
2022/01/09 03:40:10;;;;;;;6.13;2.03;;;8.50;78.70;;;;;;5021850;28;20041;-90
2022/01/09 03:42:39;;;;;;;5.85;1.92;;;8.50;78.70;;;;;;5036442;28;20033;-91
2022/01/09 03:45:13;;;;;;;4.85;2.08;;;8.50;78.70;;;;;;5037503;28;20037;-92
2022/01/09 03:47:40;;;;;;;8.63;2.30;;;8.50;78.70;;;;;;5048512;28;20091;-91
2022/01/09 03:50:13;;;;;;;4.90;1.65;;;8.50;78.60;;;;;;5037179;28;20151;-91
2022/01/09 03:52:40;;;;;;;5.15;2.10;;;8.50;78.70;;;;;;5038272;28;20052;-91
2022/01/09 03:55:10;;;;;;;6.82;2.28;;;8.50;78.70;;;;;;5030948;28;20033;-91
2022/01/09 03:57:39;;;;;;;4.60;1.88;;;8.50;78.70;;;;;;5020377;28;20029;-90
2022/01/09 04:00:11;;;;;;;5.95;2.22;;;8.50;78.70;;;;;;5050057;28;20116;-90
2022/01/09 04:02:38;;;;;;;4.80;2.15;;;8.50;78.70;;;;;;5038007;28;20037;-91
2022/01/09 04:05:04;;;;;;;4.32;2.03;;;8.50;78.60;;;;;;5014230;28;20385;-91
2022/01/09 04:07:30;;;;;;;5.30;2.35;;;8.50;78.60;;;;;;5028477;28;20094;-90
2022/01/09 04:10:09;;;;;;;5.78;2.72;;;8.50;78.60;;;;;;5034473;28;20032;-91
2022/01/09 04:12:49;;;;;;;4.80;2.22;;;8.50;78.70;;;;;;5035947;28;20822;-87
2022/01/09 04:15:16;;;;;;;4.88;2.00;;;8.50;78.70;;;;;;5034830;28;20029;-87
2022/01/09 04:20:13;;;;;;;5.63;1.98;;;8.50;78.60;;;;;;5019896;28;20086;-88
2022/01/09 04:22:40;;;;;;;7.00;2.22;;;8.60;78.70;;;;;;5045626;28;20083;-88
2022/01/09 04:25:07;;;;;;;4.78;1.75;;;8.50;78.60;;;;;;5050322;28;20021;-88
2022/01/09 04:27:34;;;;;;;5.90;2.20;;;8.60;78.90;;;;;;5051737;28;20052;-93
2022/01/09 04:30:03;;;;;;;6.00;2.28;;;8.60;78.70;;;;;;5019807;28;20025;-91
2022/01/09 04:32:29;;;;;;;4.30;1.98;;;8.60;78.70;;;;;;5035875;28;20029;-89
2022/01/09 04:34:55;;;;;;;3.33;1.60;;;8.60;78.60;;;;;;5017521;28;20031;-82
2022/01/09 04:37:30;;;;;;;6.25;1.60;;;8.60;78.70;;;;;;5018322;28;20121;-89
2022/01/09 04:40:08;;;;;;;4.40;1.77;;;8.60;78.70;;;;;;5050906;28;20060;-88
2022/01/09 04:42:45;;;;;;;5.70;1.90;;;8.60;78.70;;;;;;5032194;28;20025;-89
2022/01/09 04:45:14;;;;;;;6.60;1.98;;;8.60;78.60;;;;;;5016796;28;20096;-88
2022/01/09 04:47:46;;;;;;;4.30;1.80;;;8.60;78.70;;;;;;5053131;28;20033;-88
2022/01/09 04:50:34;;;;;;;6.25;2.33;;;8.60;78.70;;;;;;5036543;28;20025;-89
2022/01/09 04:53:09;;;;;;;2.97;1.48;;;8.60;78.70;;;;;;5036416;28;20107;-87
2022/01/09 04:55:50;;;;;;;4.43;1.70;;;8.60;78.60;;;;;;5034154;28;20029;-89
2022/01/09 04:58:19;;;;;;;4.75;1.90;;;8.60;78.60;;;;;;5036165;28;20033;-88
2022/01/09 05:00:45;;;;;;;4.40;1.92;;;8.60;78.60;;;;;;5036356;28;20051;-88
2022/01/09 05:03:13;;;;;;;5.32;1.75;;;8.60;78.70;;;;;;5035899;28;20048;-87
2022/01/09 05:05:45;;;;;;;3.58;1.55;;;8.60;78.70;;;;;;5036015;28;20041;-88
2022/01/09 05:08:22;;;;;;;6.72;2.05;;;8.60;78.70;;;;;;5051981;28;20037;-88
2022/01/09 05:10:48;;;;;;;3.13;1.65;;;8.60;78.70;;;;;;5054427;28;20292;-88
2022/01/09 05:13:14;;;;;;;3.67;1.65;;;8.60;78.60;;;;;;5035971;28;20543;-88
2022/01/09 05:15:41;;;;;;;2.58;1.58;;;8.60;78.70;;;;;;5036038;28;20588;-88
2022/01/09 05:18:14;;;;;;;3.10;1.70;;;8.60;78.70;;;;;;5028380;28;20020;-87
2022/01/09 05:20:43;;;;;;;3.42;1.92;;;8.60;78.70;;;;;;5072828;28;20055;-88
2022/01/09 05:23:16;;;;;;;4.60;1.67;;;8.70;78.70;;;;;;5040070;28;20017;-87
2022/01/09 05:25:47;;;;;;;5.43;2.05;;;8.60;78.70;;;;;;5021284;28;20034;-88
2022/01/09 05:28:13;;;;;;;3.95;1.60;;;8.60;78.60;;;;;;5051823;28;20037;-88
2022/01/09 05:30:44;;;;;;;4.57;2.30;;;8.60;78.60;;;;;;5019502;28;20020;-87
2022/01/09 05:33:17;;;;;;;3.42;1.60;;;8.60;78.60;;;;;;5035474;28;20104;-88
2022/01/09 05:35:48;;;;;;;3.28;1.70;;;8.60;78.60;;;;;;5036010;28;20040;-88
2022/01/09 05:38:14;;;;;;;4.82;1.70;;;8.60;78.60;;;;;;5045392;28;20465;-88
2022/01/09 05:40:40;;;;;;;4.82;1.70;;;8.60;78.60;;;;;;5035338;28;20055;-88
2022/01/09 05:43:08;;;;;;;4.03;1.63;;;8.60;78.60;;;;;;5018994;28;20116;-88
2022/01/09 05:45:43;;;;;;;4.93;1.95;;;8.60;78.70;;;;;;5019016;28;20539;-88
2022/01/09 05:48:14;;;;;;;6.65;2.08;;;8.60;78.60;;;;;;5022411;28;20107;-89
2022/01/09 05:50:42;;;;;;;3.58;1.60;;;8.60;78.60;;;;;;5055783;28;20025;-88
2022/01/09 05:53:10;;;;;;;4.63;1.90;;;8.60;78.70;;;;;;5035479;28;20021;-88
2022/01/09 05:55:37;;;;;;;3.42;1.60;;;8.60;78.60;;;;;;5035648;28;20453;-89
2022/01/09 05:58:03;;;;;;;3.22;1.60;;;8.60;78.60;;;;;;5035446;28;20017;-88
2022/01/09 06:00:41;;;;;;;4.05;1.60;;;8.60;78.60;;;;;;5019966;28;20075;-88
2022/01/09 06:03:10;;;;;;;2.92;1.75;;;8.60;78.60;;;;;;5003142;28;20029;-88
2022/01/09 06:05:39;;;;;;;3.65;1.83;;;8.60;78.60;;;;;;5034253;28;20707;-88
2022/01/09 06:08:05;;;;;;;2.85;1.50;;;8.60;78.60;;;;;;5038494;28;20118;-88
2022/01/09 06:10:31;;;;;;;4.03;1.90;;;8.60;78.60;;;;;;5039209;28;20092;-88
2022/01/09 06:12:59;;;;;;;3.95;1.33;;;8.60;78.60;;;;;;5056191;28;20108;-88
2022/01/09 06:15:27;;;;;;;4.10;1.80;;;8.60;78.60;;;;;;5006713;28;20033;-88
2022/01/09 06:17:55;;;;;;;4.07;1.80;;;8.60;79.20;;;;;;5039117;28;20416;-88
2022/01/09 06:20:21;;;;;;;5.38;1.85;;;8.60;78.70;;;;;;5050127;28;20036;-88
2022/01/09 06:22:47;;;;;;;3.40;1.60;;;8.60;78.60;;;;;;5075734;28;20028;-88
2022/01/09 06:25:16;;;;;;;4.72;1.60;;;8.60;78.60;;;;;;5066493;28;20047;-88
2022/01/09 06:27:42;;;;;;;4.63;1.50;;;8.60;78.70;;;;;;5056166;28;20036;-89
2022/01/09 06:30:18;;;;;;;4.00;1.67;;;8.60;78.60;;;;;;5023548;28;20039;-89
2022/01/09 06:32:44;;;;;;;3.67;1.65;;;8.60;78.60;;;;;;5022542;28;20025;-88
2022/01/09 06:35:11;;;;;;;2.95;1.55;;;8.50;78.50;;;;;;5038913;28;20421;-88
2022/01/09 06:37:37;;;;;;;5.45;1.77;;;8.50;78.60;;;;;;5038462;28;20033;-88
2022/01/09 06:40:11;;;;;;;3.97;1.75;;;8.50;78.50;;;;;;5039119;28;20045;-88
2022/01/09 06:42:42;;;;;;;5.18;1.95;;;8.60;78.70;;;;;;5022598;28;20112;-89
2022/01/09 06:45:11;;;;;;;3.38;1.60;;;8.50;78.60;;;;;;5023018;28;20036;-88
2022/01/09 06:47:44;;;;;;;3.50;1.80;;;8.50;78.50;;;;;;5039859;28;20036;-89
2022/01/09 06:50:14;;;;;;;3.40;1.63;;;8.60;78.60;;;;;;5055589;28;20017;-88
2022/01/09 06:52:43;;;;;;;2.47;1.58;;;8.60;78.60;;;;;;5022029;28;20025;-89
2022/01/09 06:55:17;;;;;;;2.70;1.40;;;8.60;78.60;;;;;;5021441;28;20029;-89
2022/01/09 06:57:49;;;;;;;4.90;2.15;;;8.50;78.60;;;;;;5039204;28;20029;-88
2022/01/09 07:00:17;;;;;;;3.80;1.45;;;8.50;78.60;;;;;;5037993;28;20551;-88
2022/01/09 07:02:44;;;;;;;4.88;2.13;;;8.50;78.60;;;;;;5041759;28;20025;-87
2022/01/09 07:05:13;;;;;;;4.03;1.63;;;8.50;78.60;;;;;;5038020;28;20087;-88
2022/01/09 07:07:41;;;;;;;3.33;1.63;;;8.50;78.50;;;;;;5035857;28;20036;-88
2022/01/09 07:10:11;;;;;;;2.92;1.40;;;8.50;78.50;;;;;;5046578;28;20024;-87
2022/01/09 07:12:37;;;;;;;4.65;1.50;;;8.50;78.60;;;;;;5037253;28;20029;-87
2022/01/09 07:15:09;;;;;;;3.53;1.40;;;8.50;78.50;;;;;;5039091;28;20025;-87
2022/01/09 07:17:35;;;;;;;4.03;1.50;;;8.50;78.60;;;;;;5021855;28;20021;-87
2022/01/09 07:20:21;;;;;;;1.90;1.20;;;8.40;78.50;;;;;;5038676;28;20027;-87
2022/01/09 07:22:49;;;;;;;5.15;1.50;;;8.50;78.60;;;;;;5037946;28;20040;-87
2022/01/09 07:25:18;;;;;;;2.78;1.48;;;8.40;78.50;;;;;;5021490;28;20032;-89
2022/01/09 07:27:46;;;;;;;4.55;1.50;;;8.40;78.50;;;;;;5021787;28;20037;-88
2022/01/09 07:30:12;;;;;;;4.35;1.65;;;8.40;78.50;;;;;;5005616;28;20028;-88
2022/01/09 07:32:40;;;;;;;2.88;1.30;;;8.40;78.50;;;;;;5037261;28;20398;-89
2022/01/09 07:35:09;;;;;;;3.30;1.60;;;8.40;78.50;;;;;;5046743;28;20025;-90
2022/01/09 07:37:47;;;;;;;4.80;1.77;;;8.40;78.50;;;;;;5050531;28;20039;-89
2022/01/09 07:40:41;;;;;;;4.32;1.70;;;8.40;79.10;;;;;;5043081;28;20509;-89
2022/01/09 07:43:30;;;;;;;2.33;1.50;;;8.40;78.50;;;;;;5036495;28;20049;-88
2022/01/09 07:46:24;;;;;;;4.85;1.77;;;8.40;78.50;;;;;;5035241;28;20087;-89
2022/01/09 07:48:54;;;;;;;2.65;1.48;;;8.30;78.50;;;;;;5034166;28;20167;-88
2022/01/09 07:51:25;;;;;;;1.98;1.40;;;8.30;78.50;;;;;;5004406;28;20029;-89
2022/01/09 07:53:56;;;;;;;2.75;1.48;;;8.30;78.50;;;;;;5023257;28;20025;-89
2022/01/09 07:59:23;;;;;;;3.47;1.33;;;8.40;78.50;;;;;;5013772;28;20053;-89
2022/01/09 08:01:56;;;;;;;3.42;1.42;;;8.30;78.50;;;;;;5024327;28;20032;-89
2022/01/09 08:04:25;;;;;;;3.53;1.50;;;8.30;78.50;;;;;;5038032;28;20025;-90
2022/01/09 08:06:53;;;;;;;2.80;1.50;;;8.30;78.50;;;;;;5037033;28;20504;-89
2022/01/09 08:09:34;;;;;;;2.83;1.30;;;8.30;78.50;;;;;;5057043;28;20028;-89
2022/01/09 08:12:08;;;;;;;2.92;1.63;;;8.30;78.50;;;;;;5063027;28;20087;-88
2022/01/09 08:14:38;;;;;;;3.15;1.60;;;8.30;78.50;;;;;;5053475;28;20103;-83
2022/01/09 08:17:05;;;;;;;2.58;1.58;;;8.30;78.50;;;;;;5053859;28;20033;-85
2022/01/09 08:19:31;;;;;;;3.40;1.98;;;8.30;78.50;;;;;;5034973;28;20033;-86
2022/01/09 08:22:00;;;;;;;2.58;1.45;;;8.30;78.50;;;;;;5036770;28;20489;-86
2022/01/09 08:24:47;;;;;;;2.55;1.45;;;8.20;78.50;;;;;;5052251;28;20037;-85
2022/01/09 08:27:19;;;;;;;2.78;1.33;;;8.20;78.40;;;;;;5038686;28;20076;-84
2022/01/09 08:29:45;;;;;;;2.30;1.30;;;8.20;78.40;;;;;;5020072;28;20029;-83
2022/01/09 08:32:12;;;;;;;3.65;1.70;;;8.20;78.40;;;;;;5037464;28;20025;-84
2022/01/09 08:34:39;;;;;;;2.53;1.48;;;8.20;78.50;;;;;;5040112;28;20028;-84
2022/01/09 08:37:09;;;;;;;2.45;1.30;;;8.20;78.50;;;;;;5040846;28;20043;-83
2022/01/09 08:39:42;;;;;;;2.85;1.52;;;8.20;78.50;;;;;;5062514;28;20527;-83
2022/01/09 08:42:08;;;;;;;3.22;1.50;;;8.20;78.50;;;;;;5037117;28;20072;-84
2022/01/09 08:44:34;;;;;;;2.38;1.40;;;8.20;78.50;;;;;;5020896;28;20037;-83
2022/01/09 08:47:00;;;;;;;2.78;1.40;;;8.20;78.50;;;;;;5054266;28;20462;-83
2022/01/09 08:49:26;;;;;;;3.60;1.60;;;8.20;78.50;;;;;;5021453;28;20087;-84
2022/01/09 08:51:53;;;;;;;1.83;1.30;;;8.20;78.50;;;;;;5047025;28;20479;-84
2022/01/09 08:54:19;;;;;;;3.00;1.55;;;8.20;78.50;;;;;;5039950;28;20151;-84
2022/01/09 08:56:45;;;;;;;1.92;1.70;;;8.20;78.50;;;;;;5057132;28;20064;-84
2022/01/09 08:59:13;;;;;;;3.38;1.50;;;8.10;78.40;;;;;;5058957;28;20449;-83
2022/01/09 09:01:39;;;;;;;2.78;1.33;;;8.20;78.50;;;;;;5035316;28;20079;-84
2022/01/09 09:04:09;;;;;;;3.13;1.63;;;8.20;78.50;;;;;;5035336;28;20056;-84
2022/01/09 09:06:35;;;;;;;2.85;1.40;;;8.20;78.50;;;;;;5035271;28;20039;-83
2022/01/09 09:09:01;;;;;;;2.33;1.52;;;8.10;78.50;;;;;;5035405;28;20123;-83
2022/01/09 09:11:29;;;;;;;2.55;1.20;;;8.10;78.50;;;;;;5035447;28;20029;-83
2022/01/09 09:13:55;;;;;;;3.20;1.70;;;8.10;78.50;;;;;;5035541;28;20120;-83
2022/01/09 09:16:21;;;;;;;3.80;1.40;;;8.10;78.40;;;;;;5014918;28;20037;-83
2022/01/09 09:18:49;;;;;;;3.38;1.60;;;8.10;78.40;;;;;;5016973;28;20029;-83
2022/01/09 09:21:16;;;;;;;2.85;1.58;;;8.10;78.50;;;;;;5034943;28;20107;-85
2022/01/09 09:23:42;;;;;;;3.85;1.70;;;8.10;78.50;;;;;;5044638;28;20028;-85
2022/01/09 09:26:09;;;;;;;2.35;1.35;;;8.10;78.50;;;;;;5050282;28;20032;-85
2022/01/09 09:28:36;;;;;;;3.40;1.50;;;8.10;78.50;;;;;;5068378;28;20024;-86
2022/01/09 09:31:03;;;;;;;3.38;1.38;;;8.10;78.50;;;;;;5071885;28;20078;-86
2022/01/09 09:33:29;;;;;;;2.13;1.38;;;8.10;78.50;;;;;;5055397;28;20025;-85
2022/01/09 09:35:58;;;;;;;1.75;1.23;;;8.10;78.50;;;;;;5064111;28;20025;-85
2022/01/09 09:38:25;;;;;;;3.00;1.50;;;8.10;78.50;;;;;;5040941;28;20478;-85
2022/01/09 09:40:50;;;;;;;1.67;1.58;;;8.10;78.50;;;;;;5037498;28;20406;-84
2022/01/09 09:43:17;;;;;;;2.55;1.50;;;8.10;78.50;;;;;;5015417;28;20030;-85
2022/01/09 09:45:43;;;;;;;2.50;1.35;;;8.10;78.50;;;;;;5031793;28;20029;-84
2022/01/09 09:48:09;;;;;;;2.15;1.50;;;8.10;78.50;;;;;;5015375;28;20051;-84
2022/01/09 09:50:35;;;;;;;2.50;1.27;;;8.10;78.50;;;;;;5015053;28;20064;-84
2022/01/09 09:53:02;;;;;;;3.35;1.60;;;8.10;78.50;;;;;;5047062;28;20037;-85
2022/01/09 09:55:29;;;;;;;3.17;1.60;;;8.10;78.50;;;;;;5048893;28;20051;-84
2022/01/09 09:57:55;;;;;;;2.33;1.35;;;8.10;78.50;;;;;;5014977;28;20061;-85
2022/01/09 10:00:21;;;;;;;2.58;1.45;;;8.10;78.50;;;;;;5044635;28;20109;-81
2022/01/09 10:02:48;;;;;;;3.55;1.58;;;8.10;78.50;;;;;;5001324;28;20489;-81
2022/01/09 10:05:20;;;;;;;1.50;1.40;;;8.10;78.50;;;;;;5050734;28;20029;-81
2022/01/09 10:07:46;;;;;;;2.95;1.40;;;8.10;78.50;;;;;;5034475;28;20060;-82
2022/01/09 10:10:19;;;;;;;3.22;1.50;;;8.10;78.50;;;;;;5039715;28;20026;-84
2022/01/09 10:12:46;;;;;;;3.10;1.83;;;8.10;78.60;;;;;;5039135;28;20025;-83
2022/01/09 10:15:19;;;;;;;3.00;1.40;;;8.20;78.60;;;;;;5015833;28;20033;-82
2022/01/09 10:17:47;;;;;;;2.65;1.58;;;8.20;78.60;;;;;;5029541;28;20497;-84
2022/01/09 10:20:23;;;;;;;3.03;1.67;;;8.10;78.50;;;;;;5014353;28;20037;-83
2022/01/09 10:22:53;;;;;;;3.05;1.60;;;8.20;78.60;;;;;;5014526;28;20034;-83
2022/01/09 10:25:30;;;;;;;2.50;1.50;;;8.20;78.70;;;;;;5031075;28;20124;-84
2022/01/09 10:27:59;;;;;;;3.13;1.73;;;8.20;78.60;;;;;;5031068;28;20033;-84
2022/01/09 10:30:34;;;;;;;2.30;1.52;;;8.20;78.60;;;;;;5016134;28;20049;-83
2022/01/09 10:33:04;;;;;;;1.83;1.30;;;8.20;78.70;;;;;;5030375;28;20025;-83
2022/01/09 10:35:31;;;;;;;3.33;1.70;;;8.20;78.60;;;;;;5016245;28;20470;-83
2022/01/09 10:38:22;;;;;;;3.65;1.70;;;8.20;78.60;;;;;;5031264;28;20513;-83
2022/01/09 10:40:54;;;;;;;2.75;1.50;;;8.20;78.80;;;;;;5037508;28;20045;-83
2022/01/09 10:43:23;;;;;;;2.67;1.60;;;8.20;79.20;;;;;;5035158;28;20031;-82
2022/01/09 10:45:59;;;;;;;2.17;1.40;;;8.20;78.70;;;;;;5034653;28;20029;-83
2022/01/09 10:48:42;;;;;;;1.70;1.33;;;8.20;78.70;;;;;;5034487;28;20029;-83
2022/01/09 10:51:11;;;;;;;2.75;1.58;;;8.30;78.80;;;;;;5029371;28;20036;-83
2022/01/09 10:53:38;;;;;;;2.30;1.38;;;8.20;78.70;;;;;;5019530;28;20083;-83
2022/01/09 10:56:12;;;;;;;3.92;1.55;;;8.30;78.70;;;;;;5037901;28;20033;-83
2022/01/09 10:58:57;;;;;;;2.25;1.48;;;8.20;78.70;;;;;;5037868;28;20569;-84
2022/01/09 11:01:28;;;;;;;;;;;8.30;78.80;;;;;;5038816;28;20029;-83
2022/01/09 11:04:06;;;;;;;3.60;1.85;;;8.30;78.60;;;;;;5022621;28;19909;-83
2022/01/09 11:06:38;;;;;;;4.63;1.50;;;8.30;78.60;;;;;;5054072;28;20033;-83
2022/01/09 11:09:08;;;;;;;3.35;1.50;;;8.30;78.70;;;;;;5055171;28;20060;-84
2022/01/09 11:11:37;;;;;;;4.07;1.80;;;8.30;78.80;;;;;;5037411;28;20428;-84
2022/01/09 11:14:06;;;;;;;4.88;1.85;;;8.30;78.80;;;;;;5021552;28;20037;-83
2022/01/09 11:16:53;;;;;;;3.03;1.50;;;8.30;78.80;;;;;;5005318;28;20766;-82
2022/01/09 11:19:23;;;;;;;3.17;2.00;;;8.30;78.70;;;;;;5037052;28;20064;-83
2022/01/09 11:21:55;;;;;;;3.05;1.70;;;8.30;78.70;;;;;;5051574;28;20029;-83
2022/01/09 11:24:51;;;;;;;4.70;1.70;;;8.40;78.80;;;;;;5048212;28;20025;-83
2022/01/09 11:27:22;;;;;;;3.47;1.98;;;8.40;78.80;;;;;;5056345;28;20052;-83
2022/01/09 11:30:14;;;;;;;3.72;1.60;;;8.40;78.70;;;;;;5053526;28;20037;-83
2022/01/09 11:33:21;;;;;;;2.50;1.55;;;8.40;78.90;;;;;;5053944;28;20029;-83
2022/01/09 11:36:09;;;;;;;3.72;1.60;;;8.40;78.80;;;;;;5036782;28;20474;-84
2022/01/09 11:39:35;;;;;;;2.70;1.50;;;8.40;78.80;;;;;;5037191;28;20490;-82
2022/01/09 11:42:19;;;;;;;2.23;1.23;;;8.40;78.80;;;;;;4959985;28;20054;-83
2022/01/09 11:44:53;;;;;;;3.95;1.40;;;8.40;78.70;;;;;;4969799;28;20309;-84
2022/01/09 11:47:25;;;;;;;2.92;1.70;;;8.40;78.70;;;;;;5011524;28;20061;-82
2022/01/09 11:49:53;;;;;;;2.92;1.50;;;8.40;78.70;;;;;;5039175;28;20056;-84
2022/01/09 11:52:20;;;;;;;3.75;1.63;;;8.50;78.80;;;;;;5052787;28;20032;-81
2022/01/09 11:54:51;;;;;;;1.85;1.52;;;8.50;78.70;;;;;;5019372;28;20033;-83
2022/01/09 11:57:40;;;;;;;2.13;1.58;;;8.50;78.70;;;;;;5035703;28;20377;-82
2022/01/09 12:00:30;;;;;;;2.20;1.60;;;8.50;78.80;;;;;;5036687;28;20080;-83
2022/01/09 12:02:58;;;;;;;2.88;1.40;;;8.50;78.60;;;;;;5026656;28;20047;-83
2022/01/09 12:05:24;;;;;;;2.58;1.58;;;8.60;78.70;;;;;;5034950;28;20056;-83
2022/01/09 12:07:53;;;;;;;2.60;1.40;;;8.60;78.70;;;;;;5019582;28;20041;-83
2022/01/09 12:10:35;;;;;;;2.05;1.65;;;8.60;78.70;;;;;;5036430;28;20127;-83
2022/01/09 12:13:03;;;;;;;2.78;1.45;;;8.60;78.80;;;;;;5052190;28;20138;-83
2022/01/09 12:15:40;;;;;;;3.17;1.50;;;8.60;78.70;;;;;;5036095;28;20033;-83
2022/01/09 12:18:26;;;;;;;2.78;1.50;;;8.60;78.70;;;;;;5019523;28;20052;-83
2022/01/09 12:20:52;;;;;;;2.95;1.77;;;8.60;78.60;;;;;;5052111;28;20086;-83
2022/01/09 12:23:22;;;;;;;4.95;1.90;;;8.70;78.70;;;;;;5052273;28;20033;-83
2022/01/09 12:25:52;;;;;;;3.67;1.48;;;8.70;78.70;;;;;;5018789;28;20187;-83
2022/01/09 12:28:22;;;;;;;2.28;1.50;;;8.70;78.70;;;;;;5033289;28;20126;-82
2022/01/09 12:30:59;;;;;;;2.20;1.50;;;8.70;78.80;;;;;;5045761;28;20032;-83
2022/01/09 12:33:28;;;;;;;2.22;1.58;;;8.70;78.70;;;;;;5051851;28;20044;-82
2022/01/09 12:36:17;;;;;;;3.00;1.60;;;8.70;78.60;;;;;;5044195;28;20018;-83
2022/01/09 12:38:51;;;;;;;3.05;1.55;;;8.70;78.70;;;;;;5035273;28;20115;-82
2022/01/09 12:41:31;;;;;;;3.22;1.50;;;8.70;78.60;;;;;;5050013;28;20041;-82
2022/01/09 12:44:04;;;;;;;3.00;1.67;;;8.70;78.60;;;;;;5004429;28;20034;-82
2022/01/09 12:46:45;;;;;;;2.05;1.38;;;8.70;78.60;;;;;;5019818;28;20037;-82
2022/01/09 12:49:15;;;;;;;2.92;1.50;;;8.70;78.70;;;;;;5018881;28;20136;-82
2022/01/09 12:51:50;;;;;;;3.35;1.60;;;8.70;78.60;;;;;;5019006;28;20037;-81
2022/01/09 12:54:16;;;;;;;3.33;1.50;;;8.70;78.60;;;;;;5054787;28;20044;-83
2022/01/09 12:56:42;;;;;;;2.88;1.63;;;8.80;78.60;;;;;;5055109;28;20031;-84
2022/01/09 12:59:10;;;;;;;2.10;1.67;;;8.80;78.60;;;;;;5072184;28;20150;-85
2022/01/09 13:01:43;;;;;;;1.73;1.30;;;8.80;78.70;;;;;;5017006;28;20052;-79
2022/01/09 13:04:18;;;;;;;3.75;1.60;;;8.80;78.70;;;;;;5051935;28;20037;-85
2022/01/09 13:06:48;;;;;;;2.80;1.48;;;8.80;78.60;;;;;;5052457;28;20342;-86
2022/01/09 13:09:17;;;;;;;2.15;1.40;;;8.80;78.60;;;;;;5052701;28;20037;-87
2022/01/09 13:11:43;;;;;;;2.15;1.17;;;8.90;78.60;;;;;;5016617;28;20025;-86
2022/01/09 13:14:10;;;;;;;2.95;1.40;;;8.90;78.50;;;;;;5055660;28;20072;-86
2022/01/09 13:16:36;;;;;;;2.67;1.42;;;8.90;78.40;;;;;;5043003;28;20041;-85
2022/01/09 13:19:10;;;;;;;2.35;1.52;;;8.90;78.40;;;;;;5041849;28;20009;-86
2022/01/09 13:21:41;;;;;;;3.38;1.70;;;8.90;78.40;;;;;;5056176;28;20029;-85
2022/01/09 13:24:10;;;;;;;4.45;1.67;;;9.00;79.00;;;;;;5057914;28;20039;-86